West Bend, Wisconsin
Current Conditions -  °F | °C
As of 12:10 AM on Thursday 29 Jan 2015 (Local Time) from KETB Reporting Station
Unknown Precip Unknown Precip  
Wind Chill: -3°   Ceiling: 5000
Heat Index:   Visibility: 10mi
Dew Point: -5°   Wind: 5mph
Humidity: 69%   Direction: 140°SE
Pressure: 29.8"   Gusts: NA
Location:  43.41°N, 88.18°W
Report Text: KETB 290610Z AUTO 14004KT 10SM UP OVC050 00/M05 A2980 RMK AO2
Loading
Personal Weather Stations






























Interactive Weather Map New forecast layout! Learn more

10-Day Weather Forecast

Advertisements
Track Severe Weather on mobile